sensor_id;sensor_type;location;lat;lon;timestamp;P1;durP1;ratioP1;P2;durP2;ratioP2
55362;SDS011;41244;49.242;9.060;2022-09-20T00:03:56;11.23;;;4.00;;
55362;SDS011;41244;49.242;9.060;2022-09-20T00:06:24;7.75;;;4.00;;
55362;SDS011;41244;49.242;9.060;2022-09-20T00:08:53;5.82;;;4.03;;
55362;SDS011;41244;49.242;9.060;2022-09-20T00:11:21;9.80;;;4.55;;
55362;SDS011;41244;49.242;9.060;2022-09-20T00:13:51;5.80;;;4.00;;
55362;SDS011;41244;49.242;9.060;2022-09-20T00:16:21;6.88;;;4.20;;
55362;SDS011;41244;49.242;9.060;2022-09-20T00:18:52;7.88;;;4.00;;
55362;SDS011;41244;49.242;9.060;2022-09-20T00:21:21;6.30;;;4.25;;
55362;SDS011;41244;49.242;9.060;2022-09-20T00:23:51;5.45;;;3.70;;
55362;SDS011;41244;49.242;9.060;2022-09-20T00:26:17;5.80;;;3.80;;
55362;SDS011;41244;49.242;9.060;2022-09-20T00:28:43;5.97;;;3.97;;
55362;SDS011;41244;49.242;9.060;2022-09-20T00:31:11;7.30;;;4.00;;
55362;SDS011;41244;49.242;9.060;2022-09-20T00:33:37;5.75;;;4.00;;
55362;SDS011;41244;49.242;9.060;2022-09-20T00:36:22;6.90;;;4.35;;
55362;SDS011;41244;49.242;9.060;2022-09-20T00:38:48;7.30;;;3.90;;
55362;SDS011;41244;49.242;9.060;2022-09-20T00:41:13;5.22;;;3.75;;
55362;SDS011;41244;49.242;9.060;2022-09-20T00:43:40;5.22;;;3.90;;
55362;SDS011;41244;49.242;9.060;2022-09-20T00:49:11;6.68;;;4.22;;
55362;SDS011;41244;49.242;9.060;2022-09-20T00:51:40;6.47;;;4.10;;
55362;SDS011;41244;49.242;9.060;2022-09-20T00:54:10;8.55;;;4.22;;
55362;SDS011;41244;49.242;9.060;2022-09-20T00:56:38;6.55;;;3.70;;
55362;SDS011;41244;49.242;9.060;2022-09-20T00:59:11;5.95;;;3.63;;
55362;SDS011;41244;49.242;9.060;2022-09-20T01:01:40;7.70;;;3.83;;
55362;SDS011;41244;49.242;9.060;2022-09-20T01:04:08;8.10;;;3.90;;
55362;SDS011;41244;49.242;9.060;2022-09-20T01:06:33;5.05;;;3.63;;
55362;SDS011;41244;49.242;9.060;2022-09-20T01:09:00;7.15;;;3.80;;
55362;SDS011;41244;49.242;9.060;2022-09-20T01:11:28;7.88;;;3.85;;
55362;SDS011;41244;49.242;9.060;2022-09-20T01:13:54;6.82;;;3.90;;
55362;SDS011;41244;49.242;9.060;2022-09-20T01:16:21;7.45;;;3.78;;
55362;SDS011;41244;49.242;9.060;2022-09-20T01:18:47;8.73;;;4.75;;
55362;SDS011;41244;49.242;9.060;2022-09-20T01:21:14;6.60;;;4.30;;
55362;SDS011;41244;49.242;9.060;2022-09-20T01:23:48;9.85;;;4.40;;
55362;SDS011;41244;49.242;9.060;2022-09-20T01:32:12;7.45;;;4.00;;
55362;SDS011;41244;49.242;9.060;2022-09-20T01:34:45;5.43;;;4.10;;
55362;SDS011;41244;49.242;9.060;2022-09-20T01:37:18;6.40;;;3.92;;
55362;SDS011;41244;49.242;9.060;2022-09-20T01:40:12;7.13;;;4.20;;
55362;SDS011;41244;49.242;9.060;2022-09-20T01:46:28;10.82;;;4.22;;
55362;SDS011;41244;49.242;9.060;2022-09-20T01:49:43;8.82;;;4.10;;
55362;SDS011;41244;49.242;9.060;2022-09-20T01:55:56;7.47;;;4.00;;
55362;SDS011;41244;49.242;9.060;2022-09-20T02:04:41;5.53;;;3.60;;
55362;SDS011;41244;49.242;9.060;2022-09-20T02:07:39;6.00;;;4.22;;
55362;SDS011;41244;49.242;9.060;2022-09-20T02:39:02;10.02;;;3.50;;
55362;SDS011;41244;49.242;9.060;2022-09-20T02:41:40;6.90;;;3.92;;
55362;SDS011;41244;49.242;9.060;2022-09-20T02:49:52;7.97;;;3.97;;
55362;SDS011;41244;49.242;9.060;2022-09-20T02:58:45;9.95;;;4.72;;
55362;SDS011;41244;49.242;9.060;2022-09-20T03:03:58;8.65;;;4.03;;
55362;SDS011;41244;49.242;9.060;2022-09-20T03:06:48;9.00;;;4.30;;
55362;SDS011;41244;49.242;9.060;2022-09-20T03:15:29;8.98;;;4.80;;
55362;SDS011;41244;49.242;9.060;2022-09-20T03:18:33;9.00;;;4.70;;
55362;SDS011;41244;49.242;9.060;2022-09-20T03:21:27;8.23;;;4.50;;
55362;SDS011;41244;49.242;9.060;2022-09-20T03:26:50;11.15;;;5.30;;
55362;SDS011;41244;49.242;9.060;2022-09-20T03:51:55;10.70;;;5.65;;
55362;SDS011;41244;49.242;9.060;2022-09-20T04:00:18;15.68;;;6.25;;
55362;SDS011;41244;49.242;9.060;2022-09-20T04:08:53;9.55;;;6.00;;
55362;SDS011;41244;49.242;9.060;2022-09-20T04:14:53;10.13;;;5.80;;
55362;SDS011;41244;49.242;9.060;2022-09-20T04:26:03;8.38;;;5.82;;
55362;SDS011;41244;49.242;9.060;2022-09-20T04:28:32;13.75;;;5.93;;
55362;SDS011;41244;49.242;9.060;2022-09-20T04:34:13;12.23;;;5.85;;
55362;SDS011;41244;49.242;9.060;2022-09-20T04:37:15;10.65;;;6.10;;
55362;SDS011;41244;49.242;9.060;2022-09-20T04:39:46;13.30;;;5.97;;
55362;SDS011;41244;49.242;9.060;2022-09-20T04:45:27;12.90;;;6.40;;
55362;SDS011;41244;49.242;9.060;2022-09-20T04:54:44;11.55;;;7.05;;
55362;SDS011;41244;49.242;9.060;2022-09-20T05:00:41;10.73;;;6.07;;
55362;SDS011;41244;49.242;9.060;2022-09-20T05:12:55;12.98;;;6.35;;
55362;SDS011;41244;49.242;9.060;2022-09-20T05:15:43;10.68;;;5.57;;
55362;SDS011;41244;49.242;9.060;2022-09-20T05:36:04;7.82;;;5.82;;
55362;SDS011;41244;49.242;9.060;2022-09-20T05:38:48;10.77;;;5.90;;
55362;SDS011;41244;49.242;9.060;2022-09-20T05:55:50;9.18;;;6.13;;
55362;SDS011;41244;49.242;9.060;2022-09-20T05:58:55;14.00;;;6.32;;
55362;SDS011;41244;49.242;9.060;2022-09-20T06:01:39;10.80;;;6.78;;
55362;SDS011;41244;49.242;9.060;2022-09-20T06:04:25;11.75;;;6.88;;
55362;SDS011;41244;49.242;9.060;2022-09-20T06:15:47;28.13;;;23.17;;
55362;SDS011;41244;49.242;9.060;2022-09-20T06:18:28;10.02;;;6.07;;
55362;SDS011;41244;49.242;9.060;2022-09-20T06:24:08;33.30;;;19.60;;
55362;SDS011;41244;49.242;9.060;2022-09-20T06:27:03;13.32;;;8.65;;
55362;SDS011;41244;49.242;9.060;2022-09-20T06:29:36;9.55;;;6.07;;
55362;SDS011;41244;49.242;9.060;2022-09-20T06:32:04;10.77;;;6.95;;
55362;SDS011;41244;49.242;9.060;2022-09-20T06:34:30;11.27;;;6.95;;
55362;SDS011;41244;49.242;9.060;2022-09-20T06:36:59;10.88;;;6.93;;
55362;SDS011;41244;49.242;9.060;2022-09-20T06:42:58;10.57;;;7.07;;
55362;SDS011;41244;49.242;9.060;2022-09-20T06:45:24;14.02;;;7.97;;
55362;SDS011;41244;49.242;9.060;2022-09-20T06:47:50;24.20;;;11.45;;
55362;SDS011;41244;49.242;9.060;2022-09-20T06:50:16;12.18;;;7.03;;
55362;SDS011;41244;49.242;9.060;2022-09-20T06:52:43;10.77;;;7.35;;
55362;SDS011;41244;49.242;9.060;2022-09-20T06:55:20;13.15;;;7.15;;
55362;SDS011;41244;49.242;9.060;2022-09-20T06:57:53;15.45;;;7.53;;
55362;SDS011;41244;49.242;9.060;2022-09-20T07:00:19;10.07;;;6.60;;
55362;SDS011;41244;49.242;9.060;2022-09-20T07:02:45;14.88;;;6.85;;
55362;SDS011;41244;49.242;9.060;2022-09-20T07:05:16;11.02;;;6.65;;
55362;SDS011;41244;49.242;9.060;2022-09-20T07:07:45;8.10;;;6.30;;
55362;SDS011;41244;49.242;9.060;2022-09-20T07:10:11;8.90;;;6.28;;
55362;SDS011;41244;49.242;9.060;2022-09-20T07:12:39;11.77;;;6.95;;
55362;SDS011;41244;49.242;9.060;2022-09-20T07:15:05;14.00;;;6.80;;
55362;SDS011;41244;49.242;9.060;2022-09-20T07:17:32;9.73;;;6.25;;
55362;SDS011;41244;49.242;9.060;2022-09-20T07:19:58;11.20;;;5.70;;
55362;SDS011;41244;49.242;9.060;2022-09-20T07:22:25;13.48;;;5.80;;
55362;SDS011;41244;49.242;9.060;2022-09-20T07:24:51;15.65;;;6.78;;
55362;SDS011;41244;49.242;9.060;2022-09-20T07:27:17;10.95;;;5.55;;
55362;SDS011;41244;49.242;9.060;2022-09-20T07:29:43;8.75;;;5.28;;
55362;SDS011;41244;49.242;9.060;2022-09-20T07:32:10;12.85;;;5.50;;
55362;SDS011;41244;49.242;9.060;2022-09-20T07:34:36;13.13;;;6.15;;
55362;SDS011;41244;49.242;9.060;2022-09-20T07:37:01;10.13;;;5.35;;
55362;SDS011;41244;49.242;9.060;2022-09-20T07:39:27;13.40;;;6.30;;
55362;SDS011;41244;49.242;9.060;2022-09-20T07:41:53;30.08;;;20.05;;
55362;SDS011;41244;49.242;9.060;2022-09-20T07:44:19;9.25;;;4.68;;
55362;SDS011;41244;49.242;9.060;2022-09-20T07:46:53;9.27;;;3.80;;
55362;SDS011;41244;49.242;9.060;2022-09-20T07:49:21;13.55;;;4.47;;
55362;SDS011;41244;49.242;9.060;2022-09-20T07:51:48;7.05;;;4.10;;
55362;SDS011;41244;49.242;9.060;2022-09-20T07:54:14;7.63;;;3.78;;
55362;SDS011;41244;49.242;9.060;2022-09-20T07:56:41;10.15;;;4.50;;
55362;SDS011;41244;49.242;9.060;2022-09-20T07:59:07;7.95;;;3.45;;
55362;SDS011;41244;49.242;9.060;2022-09-20T08:01:34;12.20;;;3.20;;
55362;SDS011;41244;49.242;9.060;2022-09-20T08:04:02;5.53;;;2.83;;
55362;SDS011;41244;49.242;9.060;2022-09-20T08:06:29;14.20;;;3.60;;
55362;SDS011;41244;49.242;9.060;2022-09-20T08:08:55;7.97;;;3.45;;
55362;SDS011;41244;49.242;9.060;2022-09-20T08:11:21;8.07;;;4.07;;
55362;SDS011;41244;49.242;9.060;2022-09-20T08:13:54;7.35;;;3.33;;
55362;SDS011;41244;49.242;9.060;2022-09-20T08:16:20;8.15;;;4.00;;
55362;SDS011;41244;49.242;9.060;2022-09-20T08:21:32;9.98;;;3.85;;
55362;SDS011;41244;49.242;9.060;2022-09-20T08:23:59;12.40;;;3.90;;
55362;SDS011;41244;49.242;9.060;2022-09-20T08:26:28;8.48;;;3.58;;
55362;SDS011;41244;49.242;9.060;2022-09-20T08:28:56;10.88;;;3.85;;
55362;SDS011;41244;49.242;9.060;2022-09-20T08:31:25;14.27;;;5.68;;
55362;SDS011;41244;49.242;9.060;2022-09-20T08:33:55;7.65;;;3.75;;
55362;SDS011;41244;49.242;9.060;2022-09-20T08:36:23;14.85;;;4.00;;
55362;SDS011;41244;49.242;9.060;2022-09-20T08:38:50;6.75;;;3.50;;
55362;SDS011;41244;49.242;9.060;2022-09-20T08:41:23;10.10;;;3.90;;
55362;SDS011;41244;49.242;9.060;2022-09-20T08:44:17;6.88;;;3.20;;
55362;SDS011;41244;49.242;9.060;2022-09-20T08:49:50;7.53;;;3.17;;
55362;SDS011;41244;49.242;9.060;2022-09-20T08:52:19;8.13;;;3.70;;
55362;SDS011;41244;49.242;9.060;2022-09-20T08:54:57;10.10;;;3.20;;
55362;SDS011;41244;49.242;9.060;2022-09-20T08:57:24;5.90;;;3.47;;
55362;SDS011;41244;49.242;9.060;2022-09-20T08:59:56;6.00;;;2.80;;
55362;SDS011;41244;49.242;9.060;2022-09-20T09:02:28;7.40;;;3.35;;
55362;SDS011;41244;49.242;9.060;2022-09-20T09:04:55;8.70;;;3.30;;
55362;SDS011;41244;49.242;9.060;2022-09-20T09:07:21;7.50;;;3.20;;
55362;SDS011;41244;49.242;9.060;2022-09-20T09:09:49;9.85;;;3.30;;
55362;SDS011;41244;49.242;9.060;2022-09-20T09:12:24;8.43;;;3.25;;
55362;SDS011;41244;49.242;9.060;2022-09-20T09:14:58;5.93;;;3.65;;
55362;SDS011;41244;49.242;9.060;2022-09-20T09:17:34;9.40;;;3.20;;
55362;SDS011;41244;49.242;9.060;2022-09-20T09:20:16;9.65;;;3.10;;
55362;SDS011;41244;49.242;9.060;2022-09-20T09:22:46;12.30;;;3.22;;
55362;SDS011;41244;49.242;9.060;2022-09-20T09:30:24;15.23;;;7.03;;
55362;SDS011;41244;49.242;9.060;2022-09-20T09:35:40;21.17;;;9.95;;
55362;SDS011;41244;49.242;9.060;2022-09-20T09:38:23;7.78;;;3.42;;
55362;SDS011;41244;49.242;9.060;2022-09-20T09:40:52;7.28;;;3.95;;
55362;SDS011;41244;49.242;9.060;2022-09-20T09:43:28;5.82;;;3.03;;
55362;SDS011;41244;49.242;9.060;2022-09-20T09:48:46;8.55;;;3.45;;
55362;SDS011;41244;49.242;9.060;2022-09-20T09:51:28;11.70;;;3.30;;
55362;SDS011;41244;49.242;9.060;2022-09-20T09:53:56;7.85;;;4.22;;
55362;SDS011;41244;49.242;9.060;2022-09-20T09:56:28;19.00;;;7.30;;
55362;SDS011;41244;49.242;9.060;2022-09-20T10:02:28;16.80;;;7.22;;
55362;SDS011;41244;49.242;9.060;2022-09-20T10:05:37;13.70;;;5.82;;
55362;SDS011;41244;49.242;9.060;2022-09-20T10:20:01;8.95;;;3.42;;
55362;SDS011;41244;49.242;9.060;2022-09-20T10:23:09;8.23;;;3.42;;
55362;SDS011;41244;49.242;9.060;2022-09-20T10:28:35;5.88;;;3.20;;
55362;SDS011;41244;49.242;9.060;2022-09-20T10:34:06;7.53;;;3.55;;
55362;SDS011;41244;49.242;9.060;2022-09-20T10:36:56;9.20;;;3.60;;
55362;SDS011;41244;49.242;9.060;2022-09-20T10:39:31;12.43;;;3.15;;
55362;SDS011;41244;49.242;9.060;2022-09-20T10:45:28;8.93;;;3.42;;
55362;SDS011;41244;49.242;9.060;2022-09-20T10:48:03;6.70;;;3.17;;
55362;SDS011;41244;49.242;9.060;2022-09-20T10:50:51;13.35;;;3.78;;
55362;SDS011;41244;49.242;9.060;2022-09-20T10:56:25;7.18;;;2.90;;
55362;SDS011;41244;49.242;9.060;2022-09-20T11:02:15;10.32;;;4.05;;
55362;SDS011;41244;49.242;9.060;2022-09-20T11:07:46;8.65;;;3.22;;
55362;SDS011;41244;49.242;9.060;2022-09-20T11:10:40;27.85;;;13.93;;
55362;SDS011;41244;49.242;9.060;2022-09-20T11:18:57;22.67;;;10.00;;
55362;SDS011;41244;49.242;9.060;2022-09-20T11:21:46;11.15;;;5.72;;
55362;SDS011;41244;49.242;9.060;2022-09-20T11:24:31;15.13;;;6.55;;
55362;SDS011;41244;49.242;9.060;2022-09-20T11:27:22;19.98;;;8.98;;
55362;SDS011;41244;49.242;9.060;2022-09-20T11:32:31;9.02;;;4.25;;
55362;SDS011;41244;49.242;9.060;2022-09-20T11:35:02;13.30;;;5.28;;
55362;SDS011;41244;49.242;9.060;2022-09-20T11:37:42;7.60;;;4.03;;
55362;SDS011;41244;49.242;9.060;2022-09-20T11:40:21;10.55;;;4.10;;
55362;SDS011;41244;49.242;9.060;2022-09-20T11:42:52;10.05;;;3.45;;
55362;SDS011;41244;49.242;9.060;2022-09-20T11:45:23;7.63;;;3.25;;
55362;SDS011;41244;49.242;9.060;2022-09-20T11:47:55;8.70;;;3.38;;
55362;SDS011;41244;49.242;9.060;2022-09-20T11:56:21;7.22;;;2.85;;
55362;SDS011;41244;49.242;9.060;2022-09-20T11:58:56;7.05;;;3.10;;
55362;SDS011;41244;49.242;9.060;2022-09-20T12:01:26;6.65;;;2.80;;
55362;SDS011;41244;49.242;9.060;2022-09-20T12:09:32;8.95;;;3.33;;
55362;SDS011;41244;49.242;9.060;2022-09-20T12:15:02;9.13;;;3.67;;
55362;SDS011;41244;49.242;9.060;2022-09-20T12:33:57;10.15;;;3.45;;
55362;SDS011;41244;49.242;9.060;2022-09-20T12:36:32;9.02;;;3.30;;
55362;SDS011;41244;49.242;9.060;2022-09-20T12:39:04;6.78;;;3.20;;
55362;SDS011;41244;49.242;9.060;2022-09-20T12:47:22;6.78;;;3.20;;
55362;SDS011;41244;49.242;9.060;2022-09-20T12:49:54;6.80;;;3.15;;
55362;SDS011;41244;49.242;9.060;2022-09-20T13:00:50;10.73;;;3.28;;
55362;SDS011;41244;49.242;9.060;2022-09-20T13:03:51;6.63;;;3.30;;
55362;SDS011;41244;49.242;9.060;2022-09-20T13:11:39;4.18;;;2.53;;
55362;SDS011;41244;49.242;9.060;2022-09-20T13:17:12;7.78;;;2.75;;
55362;SDS011;41244;49.242;9.060;2022-09-20T13:19:53;6.43;;;2.97;;
55362;SDS011;41244;49.242;9.060;2022-09-20T13:22:33;7.30;;;2.50;;
55362;SDS011;41244;49.242;9.060;2022-09-20T13:25:06;6.13;;;2.60;;
55362;SDS011;41244;49.242;9.060;2022-09-20T13:27:49;10.52;;;3.53;;
55362;SDS011;41244;49.242;9.060;2022-09-20T13:30:30;4.82;;;2.58;;
55362;SDS011;41244;49.242;9.060;2022-09-20T13:32:56;6.15;;;2.60;;
55362;SDS011;41244;49.242;9.060;2022-09-20T13:35:48;9.15;;;3.45;;
55362;SDS011;41244;49.242;9.060;2022-09-20T13:38:18;8.95;;;2.80;;
55362;SDS011;41244;49.242;9.060;2022-09-20T13:40:46;4.63;;;2.20;;
55362;SDS011;41244;49.242;9.060;2022-09-20T13:43:18;6.03;;;2.60;;
55362;SDS011;41244;49.242;9.060;2022-09-20T13:46:05;6.70;;;2.80;;
55362;SDS011;41244;49.242;9.060;2022-09-20T13:49:15;6.07;;;2.50;;
55362;SDS011;41244;49.242;9.060;2022-09-20T13:51:47;6.43;;;3.13;;
55362;SDS011;41244;49.242;9.060;2022-09-20T13:56:52;5.50;;;2.25;;
55362;SDS011;41244;49.242;9.060;2022-09-20T13:59:34;10.23;;;3.17;;
55362;SDS011;41244;49.242;9.060;2022-09-20T14:04:56;6.78;;;2.80;;
55362;SDS011;41244;49.242;9.060;2022-09-20T14:07:25;3.22;;;2.50;;
55362;SDS011;41244;49.242;9.060;2022-09-20T14:09:52;5.43;;;2.63;;
55362;SDS011;41244;49.242;9.060;2022-09-20T14:12:20;4.47;;;2.78;;
55362;SDS011;41244;49.242;9.060;2022-09-20T14:14:47;3.70;;;2.70;;
55362;SDS011;41244;49.242;9.060;2022-09-20T14:17:15;5.30;;;3.17;;
55362;SDS011;41244;49.242;9.060;2022-09-20T14:19:44;3.45;;;2.42;;
55362;SDS011;41244;49.242;9.060;2022-09-20T14:22:21;3.85;;;2.95;;
55362;SDS011;41244;49.242;9.060;2022-09-20T14:24:56;4.22;;;2.70;;
55362;SDS011;41244;49.242;9.060;2022-09-20T14:27:28;8.48;;;4.07;;
55362;SDS011;41244;49.242;9.060;2022-09-20T14:29:55;4.90;;;2.88;;
55362;SDS011;41244;49.242;9.060;2022-09-20T14:32:37;5.53;;;3.88;;
55362;SDS011;41244;49.242;9.060;2022-09-20T14:35:14;4.53;;;2.28;;
55362;SDS011;41244;49.242;9.060;2022-09-20T14:40:16;2.88;;;2.00;;
55362;SDS011;41244;49.242;9.060;2022-09-20T14:42:57;3.08;;;2.30;;
55362;SDS011;41244;49.242;9.060;2022-09-20T14:48:04;3.30;;;2.20;;
55362;SDS011;41244;49.242;9.060;2022-09-20T14:53:43;3.90;;;2.15;;
55362;SDS011;41244;49.242;9.060;2022-09-20T14:56:11;4.28;;;2.20;;
55362;SDS011;41244;49.242;9.060;2022-09-20T15:01:40;4.60;;;2.33;;
55362;SDS011;41244;49.242;9.060;2022-09-20T15:04:13;2.88;;;2.30;;
55362;SDS011;41244;49.242;9.060;2022-09-20T15:06:48;3.75;;;2.35;;
55362;SDS011;41244;49.242;9.060;2022-09-20T15:09:15;2.78;;;2.28;;
55362;SDS011;41244;49.242;9.060;2022-09-20T15:11:42;2.30;;;2.10;;
55362;SDS011;41244;49.242;9.060;2022-09-20T15:14:07;4.60;;;2.50;;
55362;SDS011;41244;49.242;9.060;2022-09-20T15:16:33;2.72;;;2.30;;
55362;SDS011;41244;49.242;9.060;2022-09-20T15:18:59;4.00;;;2.67;;
55362;SDS011;41244;49.242;9.060;2022-09-20T15:21:25;3.55;;;2.80;;
55362;SDS011;41244;49.242;9.060;2022-09-20T15:23:51;4.63;;;3.35;;
55362;SDS011;41244;49.242;9.060;2022-09-20T15:26:18;3.60;;;2.50;;
55362;SDS011;41244;49.242;9.060;2022-09-20T15:28:45;4.15;;;2.50;;
55362;SDS011;41244;49.242;9.060;2022-09-20T15:31:11;8.27;;;2.95;;
55362;SDS011;41244;49.242;9.060;2022-09-20T15:33:39;3.35;;;2.75;;
55362;SDS011;41244;49.242;9.060;2022-09-20T15:36:05;3.83;;;3.10;;
55362;SDS011;41244;49.242;9.060;2022-09-20T15:38:31;5.70;;;2.78;;
55362;SDS011;41244;49.242;9.060;2022-09-20T15:40:59;8.15;;;2.97;;
55362;SDS011;41244;49.242;9.060;2022-09-20T15:43:28;5.95;;;3.83;;
55362;SDS011;41244;49.242;9.060;2022-09-20T15:45:59;5.57;;;3.80;;
55362;SDS011;41244;49.242;9.060;2022-09-20T15:48:44;6.55;;;3.70;;
55362;SDS011;41244;49.242;9.060;2022-09-20T15:51:11;5.57;;;3.67;;
55362;SDS011;41244;49.242;9.060;2022-09-20T15:53:38;5.10;;;2.72;;
55362;SDS011;41244;49.242;9.060;2022-09-20T15:56:17;6.32;;;3.10;;
55362;SDS011;41244;49.242;9.060;2022-09-20T15:58:58;5.80;;;4.10;;
55362;SDS011;41244;49.242;9.060;2022-09-20T16:01:33;7.30;;;3.20;;
55362;SDS011;41244;49.242;9.060;2022-09-20T16:04:13;6.13;;;3.42;;
55362;SDS011;41244;49.242;9.060;2022-09-20T16:06:42;6.40;;;3.13;;
55362;SDS011;41244;49.242;9.060;2022-09-20T16:09:10;5.78;;;3.10;;
55362;SDS011;41244;49.242;9.060;2022-09-20T16:11:38;11.13;;;6.47;;
55362;SDS011;41244;49.242;9.060;2022-09-20T16:14:04;4.68;;;3.10;;
55362;SDS011;41244;49.242;9.060;2022-09-20T16:16:31;5.80;;;3.17;;
55362;SDS011;41244;49.242;9.060;2022-09-20T16:18:58;6.53;;;2.97;;
55362;SDS011;41244;49.242;9.060;2022-09-20T16:21:51;4.07;;;2.92;;
55362;SDS011;41244;49.242;9.060;2022-09-20T16:24:22;5.68;;;3.10;;
55362;SDS011;41244;49.242;9.060;2022-09-20T16:26:51;4.35;;;3.20;;
55362;SDS011;41244;49.242;9.060;2022-09-20T16:29:17;6.95;;;3.40;;
55362;SDS011;41244;49.242;9.060;2022-09-20T16:31:44;8.00;;;3.30;;
55362;SDS011;41244;49.242;9.060;2022-09-20T16:34:21;4.70;;;3.15;;
55362;SDS011;41244;49.242;9.060;2022-09-20T16:37:01;5.63;;;3.20;;
55362;SDS011;41244;49.242;9.060;2022-09-20T16:39:30;4.28;;;2.83;;
55362;SDS011;41244;49.242;9.060;2022-09-20T16:42:05;5.43;;;2.70;;
55362;SDS011;41244;49.242;9.060;2022-09-20T16:44:36;6.00;;;2.92;;
55362;SDS011;41244;49.242;9.060;2022-09-20T16:47:05;5.80;;;2.67;;
55362;SDS011;41244;49.242;9.060;2022-09-20T16:49:33;6.55;;;3.10;;
55362;SDS011;41244;49.242;9.060;2022-09-20T16:52:06;3.47;;;2.83;;
55362;SDS011;41244;49.242;9.060;2022-09-20T16:54:33;7.22;;;3.03;;
55362;SDS011;41244;49.242;9.060;2022-09-20T16:56:59;3.63;;;3.15;;
55362;SDS011;41244;49.242;9.060;2022-09-20T16:59:25;4.65;;;2.90;;
55362;SDS011;41244;49.242;9.060;2022-09-20T17:01:51;3.35;;;2.80;;
55362;SDS011;41244;49.242;9.060;2022-09-20T17:04:17;3.78;;;2.97;;
55362;SDS011;41244;49.242;9.060;2022-09-20T17:06:44;7.50;;;4.63;;
55362;SDS011;41244;49.242;9.060;2022-09-20T17:09:12;8.00;;;4.00;;
55362;SDS011;41244;49.242;9.060;2022-09-20T17:11:39;4.13;;;3.20;;
55362;SDS011;41244;49.242;9.060;2022-09-20T17:14:10;5.47;;;3.97;;
55362;SDS011;41244;49.242;9.060;2022-09-20T17:16:37;8.55;;;4.10;;
55362;SDS011;41244;49.242;9.060;2022-09-20T17:19:06;6.18;;;3.00;;
55362;SDS011;41244;49.242;9.060;2022-09-20T17:21:39;5.22;;;2.83;;
55362;SDS011;41244;49.242;9.060;2022-09-20T17:24:09;6.22;;;3.55;;
55362;SDS011;41244;49.242;9.060;2022-09-20T17:26:36;5.00;;;3.20;;
55362;SDS011;41244;49.242;9.060;2022-09-20T17:29:05;3.95;;;2.88;;
55362;SDS011;41244;49.242;9.060;2022-09-20T17:31:38;5.97;;;3.00;;
55362;SDS011;41244;49.242;9.060;2022-09-20T17:34:06;7.35;;;2.85;;
55362;SDS011;41244;49.242;9.060;2022-09-20T17:36:36;3.08;;;2.65;;
55362;SDS011;41244;49.242;9.060;2022-09-20T17:39:05;3.88;;;2.85;;
55362;SDS011;41244;49.242;9.060;2022-09-20T17:41:33;3.88;;;2.95;;
55362;SDS011;41244;49.242;9.060;2022-09-20T17:44:00;7.32;;;3.22;;
55362;SDS011;41244;49.242;9.060;2022-09-20T17:46:32;5.88;;;4.57;;
55362;SDS011;41244;49.242;9.060;2022-09-20T17:49:04;9.73;;;6.55;;
55362;SDS011;41244;49.242;9.060;2022-09-20T17:51:36;5.05;;;3.83;;
55362;SDS011;41244;49.242;9.060;2022-09-20T17:54:07;5.28;;;3.35;;
55362;SDS011;41244;49.242;9.060;2022-09-20T17:56:37;4.47;;;3.22;;
55362;SDS011;41244;49.242;9.060;2022-09-20T17:59:14;4.10;;;3.55;;
55362;SDS011;41244;49.242;9.060;2022-09-20T18:01:42;5.35;;;3.72;;
55362;SDS011;41244;49.242;9.060;2022-09-20T18:04:09;6.70;;;3.30;;
55362;SDS011;41244;49.242;9.060;2022-09-20T18:06:45;5.47;;;4.00;;
55362;SDS011;41244;49.242;9.060;2022-09-20T18:09:14;5.30;;;3.90;;
55362;SDS011;41244;49.242;9.060;2022-09-20T18:11:43;4.95;;;3.63;;
55362;SDS011;41244;49.242;9.060;2022-09-20T18:14:13;4.53;;;3.63;;
55362;SDS011;41244;49.242;9.060;2022-09-20T18:16:41;4.00;;;3.40;;
55362;SDS011;41244;49.242;9.060;2022-09-20T18:19:09;6.38;;;4.03;;
55362;SDS011;41244;49.242;9.060;2022-09-20T18:21:36;6.13;;;3.72;;
55362;SDS011;41244;49.242;9.060;2022-09-20T18:24:07;8.07;;;4.03;;
55362;SDS011;41244;49.242;9.060;2022-09-20T18:26:34;4.70;;;3.58;;
55362;SDS011;41244;49.242;9.060;2022-09-20T18:34:08;6.22;;;4.45;;
55362;SDS011;41244;49.242;9.060;2022-09-20T18:36:41;5.82;;;4.35;;
55362;SDS011;41244;49.242;9.060;2022-09-20T18:39:09;5.80;;;4.32;;
55362;SDS011;41244;49.242;9.060;2022-09-20T18:41:37;6.63;;;4.10;;
55362;SDS011;41244;49.242;9.060;2022-09-20T18:44:05;4.95;;;4.30;;
55362;SDS011;41244;49.242;9.060;2022-09-20T18:46:31;5.38;;;4.88;;
55362;SDS011;41244;49.242;9.060;2022-09-20T18:49:03;7.63;;;5.50;;
55362;SDS011;41244;49.242;9.060;2022-09-20T18:51:31;8.52;;;6.40;;
55362;SDS011;41244;49.242;9.060;2022-09-20T18:53:57;8.20;;;5.93;;
55362;SDS011;41244;49.242;9.060;2022-09-20T18:56:24;8.40;;;5.80;;
55362;SDS011;41244;49.242;9.060;2022-09-20T18:58:56;7.07;;;5.88;;
55362;SDS011;41244;49.242;9.060;2022-09-20T19:04:07;6.35;;;5.65;;
55362;SDS011;41244;49.242;9.060;2022-09-20T19:13:10;7.80;;;5.72;;
55362;SDS011;41244;49.242;9.060;2022-09-20T19:27:37;8.70;;;6.00;;
55362;SDS011;41244;49.242;9.060;2022-09-20T19:30:04;6.43;;;5.80;;
55362;SDS011;41244;49.242;9.060;2022-09-20T19:32:31;10.35;;;6.40;;
55362;SDS011;41244;49.242;9.060;2022-09-20T19:34:58;9.07;;;5.90;;
55362;SDS011;41244;49.242;9.060;2022-09-20T19:40:46;10.32;;;6.97;;
55362;SDS011;41244;49.242;9.060;2022-09-20T19:46:01;7.82;;;6.93;;
55362;SDS011;41244;49.242;9.060;2022-09-20T19:48:59;8.70;;;7.00;;
55362;SDS011;41244;49.242;9.060;2022-09-20T19:51:38;12.18;;;7.65;;
55362;SDS011;41244;49.242;9.060;2022-09-20T19:54:08;7.78;;;6.63;;
55362;SDS011;41244;49.242;9.060;2022-09-20T19:56:52;11.30;;;7.45;;
55362;SDS011;41244;49.242;9.060;2022-09-20T19:59:21;8.95;;;7.45;;
55362;SDS011;41244;49.242;9.060;2022-09-20T20:01:48;12.45;;;7.68;;
55362;SDS011;41244;49.242;9.060;2022-09-20T20:04:14;10.60;;;7.28;;
55362;SDS011;41244;49.242;9.060;2022-09-20T20:06:44;13.02;;;8.57;;
55362;SDS011;41244;49.242;9.060;2022-09-20T20:18:23;15.60;;;8.88;;
55362;SDS011;41244;49.242;9.060;2022-09-20T20:21:20;11.15;;;7.35;;
55362;SDS011;41244;49.242;9.060;2022-09-20T20:24:31;9.38;;;6.70;;
55362;SDS011;41244;49.242;9.060;2022-09-20T20:27:10;9.27;;;6.30;;
55362;SDS011;41244;49.242;9.060;2022-09-20T20:29:36;9.30;;;5.43;;
55362;SDS011;41244;49.242;9.060;2022-09-20T20:32:03;36.60;;;15.32;;
55362;SDS011;41244;49.242;9.060;2022-09-20T20:34:29;14.43;;;8.30;;
55362;SDS011;41244;49.242;9.060;2022-09-20T20:36:54;10.90;;;7.60;;
55362;SDS011;41244;49.242;9.060;2022-09-20T20:39:24;11.77;;;7.45;;
55362;SDS011;41244;49.242;9.060;2022-09-20T20:41:52;16.52;;;9.20;;
55362;SDS011;41244;49.242;9.060;2022-09-20T20:44:18;18.08;;;11.20;;
55362;SDS011;41244;49.242;9.060;2022-09-20T20:46:45;18.27;;;10.27;;
55362;SDS011;41244;49.242;9.060;2022-09-20T20:49:12;20.67;;;11.48;;
55362;SDS011;41244;49.242;9.060;2022-09-20T20:51:37;20.25;;;10.90;;
55362;SDS011;41244;49.242;9.060;2022-09-20T20:54:04;21.25;;;10.90;;
55362;SDS011;41244;49.242;9.060;2022-09-20T20:56:29;18.33;;;10.00;;
55362;SDS011;41244;49.242;9.060;2022-09-20T20:58:56;14.20;;;9.65;;
55362;SDS011;41244;49.242;9.060;2022-09-20T21:01:29;14.02;;;8.85;;
55362;SDS011;41244;49.242;9.060;2022-09-20T21:04:00;10.93;;;8.52;;
55362;SDS011;41244;49.242;9.060;2022-09-20T21:06:31;12.68;;;7.80;;
55362;SDS011;41244;49.242;9.060;2022-09-20T21:08:59;14.55;;;8.27;;
55362;SDS011;41244;49.242;9.060;2022-09-20T21:11:29;17.05;;;11.68;;
55362;SDS011;41244;49.242;9.060;2022-09-20T21:14:01;20.58;;;13.73;;
55362;SDS011;41244;49.242;9.060;2022-09-20T21:16:32;21.63;;;15.30;;
55362;SDS011;41244;49.242;9.060;2022-09-20T21:19:00;18.13;;;11.73;;
55362;SDS011;41244;49.242;9.060;2022-09-20T21:21:27;12.05;;;8.70;;